createdAt,value
2024-03-12T00:02:35.744Z,13.60
2024-03-12T00:07:38.849Z,13.60
2024-03-12T00:12:45.233Z,13.60
2024-03-12T00:17:48.078Z,13.60
2024-03-12T00:22:50.315Z,13.60
2024-03-12T00:27:52.243Z,13.60
2024-03-12T00:32:55.523Z,13.60
2024-03-12T00:37:58.335Z,13.60
2024-03-12T00:43:01.311Z,13.60
2024-03-12T00:48:15.036Z,13.60
2024-03-12T00:53:17.344Z,13.60
2024-03-12T00:58:21.855Z,13.70
2024-03-12T01:03:25.290Z,13.60
2024-03-12T01:08:27.321Z,13.60
2024-03-12T01:13:29.301Z,13.60
2024-03-12T01:18:33.130Z,13.60
2024-03-12T01:23:35.954Z,13.60
2024-03-12T01:28:37.765Z,13.60
2024-03-12T01:33:41.178Z,13.60
2024-03-12T01:38:43.144Z,13.60
2024-03-12T01:43:44.984Z,13.60
2024-03-12T01:48:46.957Z,13.60
2024-03-12T01:53:49.118Z,13.60
2024-03-12T01:58:53.902Z,13.60
2024-03-12T02:03:56.242Z,13.60
2024-03-12T02:08:59.402Z,13.60
2024-03-12T02:14:01.254Z,13.60
2024-03-12T02:19:04.501Z,13.60
2024-03-12T02:24:06.718Z,13.60
2024-03-12T02:29:09.119Z,13.60
2024-03-12T02:34:11.143Z,13.60
2024-03-12T02:39:15.631Z,13.60
2024-03-12T02:44:18.557Z,13.60
2024-03-12T02:49:20.955Z,13.60
2024-03-12T02:54:22.989Z,13.60
2024-03-12T02:59:29.139Z,13.60
2024-03-12T03:04:33.463Z,13.60
2024-03-12T03:09:35.818Z,13.60
2024-03-12T03:14:37.807Z,13.60
2024-03-12T03:19:39.579Z,13.60
2024-03-12T03:24:41.978Z,13.60
2024-03-12T03:29:44.113Z,13.60
2024-03-12T03:34:46.002Z,13.60
2024-03-12T03:39:48.542Z,13.60
2024-03-12T03:44:50.452Z,13.60
2024-03-12T03:49:54.088Z,13.60
2024-03-12T03:54:55.953Z,13.60
2024-03-12T03:59:58.094Z,13.60
2024-03-12T04:05:00.915Z,13.60
2024-03-12T04:10:03.288Z,13.60
2024-03-12T04:15:05.412Z,13.60
2024-03-12T04:20:10.579Z,13.60
2024-03-12T04:25:13.733Z,13.60
2024-03-12T04:30:15.732Z,13.60
2024-03-12T04:35:17.582Z,13.60
2024-03-12T04:40:22.459Z,13.60
2024-03-12T04:45:26.161Z,13.60
2024-03-12T04:50:28.426Z,13.60
2024-03-12T04:55:30.409Z,13.60
2024-03-12T05:00:32.935Z,13.50
2024-03-12T05:05:34.969Z,13.60
2024-03-12T05:10:40.346Z,13.60
2024-03-12T05:15:42.226Z,13.60
2024-03-12T05:20:44.055Z,13.60
2024-03-12T05:25:47.728Z,13.50
2024-03-12T05:30:50.738Z,13.50
2024-03-12T05:35:53.736Z,13.60
2024-03-12T05:41:05.733Z,13.60
2024-03-12T05:46:26.175Z,13.50
2024-03-12T05:51:28.160Z,13.50
2024-03-12T05:56:30.638Z,13.60
2024-03-12T06:01:32.678Z,13.60
2024-03-12T06:06:34.856Z,13.50
2024-03-12T06:11:37.424Z,13.50
2024-03-12T06:16:39.256Z,13.60
2024-03-12T06:21:43.251Z,13.60
2024-03-12T06:26:45.655Z,13.60
2024-03-12T06:31:47.966Z,13.60
2024-03-12T06:36:58.659Z,13.60
2024-03-12T06:42:04.988Z,13.60
2024-03-12T06:47:08.790Z,13.60
2024-03-12T06:52:11.872Z,13.60
2024-03-12T06:57:13.811Z,13.60
2024-03-12T07:02:19.000Z,13.50
2024-03-12T07:07:21.845Z,13.60
2024-03-12T07:12:23.716Z,13.50
2024-03-12T07:17:26.787Z,13.50
2024-03-12T07:22:29.366Z,13.50
2024-03-12T07:27:31.841Z,13.50
2024-03-12T07:32:34.297Z,13.50
2024-03-12T07:37:40.572Z,13.50
2024-03-12T07:42:44.324Z,13.50
2024-03-12T07:47:46.258Z,13.50
2024-03-12T07:52:48.148Z,13.50
2024-03-12T07:57:50.268Z,13.60
2024-03-12T08:02:52.619Z,13.50
2024-03-12T08:07:54.508Z,13.50
2024-03-12T08:12:56.410Z,13.60
2024-03-12T08:18:06.120Z,13.60
2024-03-12T08:23:15.793Z,13.60
2024-03-12T08:28:18.223Z,13.60
2024-03-12T08:33:20.301Z,13.60
2024-03-12T08:38:22.179Z,13.60
2024-03-12T08:43:24.046Z,13.60
2024-03-12T08:48:25.769Z,13.60
2024-03-12T08:53:27.594Z,13.60
2024-03-12T08:58:29.349Z,13.60
2024-03-12T09:03:31.550Z,13.60
2024-03-12T09:08:33.350Z,13.60
2024-03-12T09:13:35.068Z,13.60
2024-03-12T09:18:37.026Z,13.60
2024-03-12T09:23:47.803Z,13.60
2024-03-12T09:28:55.178Z,13.60
2024-03-12T09:33:57.831Z,13.60
2024-03-12T09:38:59.786Z,13.60
2024-03-12T09:44:05.702Z,13.60
2024-03-12T09:49:13.793Z,13.60
2024-03-12T09:54:15.619Z,13.60
2024-03-12T09:59:17.458Z,13.60
2024-03-12T10:04:19.251Z,13.50
2024-03-12T10:09:26.606Z,13.50
2024-03-12T10:14:29.695Z,13.50
2024-03-12T10:19:31.568Z,13.50
2024-03-12T10:24:34.012Z,13.50
2024-03-12T10:29:36.987Z,13.50
2024-03-12T10:34:39.217Z,13.50
2024-03-12T10:39:43.315Z,13.50
2024-03-12T10:44:47.029Z,13.50
2024-03-12T10:49:49.795Z,13.50
2024-03-12T10:55:05.017Z,13.50
2024-03-12T11:00:13.773Z,13.50
2024-03-12T11:05:18.520Z,13.50
2024-03-12T11:10:20.617Z,13.60
2024-03-12T11:15:24.196Z,13.60
2024-03-12T11:20:28.274Z,13.60
2024-03-12T11:25:39.878Z,13.60
2024-03-12T11:30:43.622Z,13.60
2024-03-12T11:35:47.857Z,13.50
2024-03-12T11:40:52.391Z,13.50
2024-03-12T11:45:55.774Z,13.50
2024-03-12T11:50:59.214Z,13.60
2024-03-12T11:56:09.030Z,13.60
2024-03-12T12:01:16.663Z,13.60
2024-03-12T12:06:20.753Z,13.60
2024-03-12T12:11:23.938Z,13.60
2024-03-12T12:16:26.505Z,13.60
2024-03-12T12:21:32.130Z,13.70
2024-03-12T12:26:37.653Z,13.70
2024-03-12T12:31:40.706Z,13.70
2024-03-12T12:36:45.145Z,13.70
2024-03-12T12:41:47.868Z,13.70
2024-03-12T12:46:50.230Z,13.70
2024-03-12T12:51:54.016Z,13.60
2024-03-12T12:57:01.160Z,13.60
2024-03-12T13:02:16.238Z,13.60
2024-03-12T13:07:31.439Z,13.60
2024-03-12T13:12:33.279Z,13.60
2024-03-12T13:17:35.855Z,13.60
2024-03-12T13:22:38.192Z,13.60
2024-03-12T13:27:39.992Z,13.60
2024-03-12T13:32:43.361Z,13.60
2024-03-12T13:37:46.814Z,13.60
2024-03-12T13:42:49.433Z,13.60
2024-03-12T13:47:51.394Z,13.60
2024-03-12T13:52:53.396Z,13.60
2024-03-12T13:57:55.326Z,13.70
2024-03-12T14:02:57.231Z,13.80
2024-03-12T14:07:59.151Z,14.40
2024-03-12T14:13:01.958Z,14.80
2024-03-12T14:18:05.047Z,15.10
2024-03-12T14:23:07.001Z,15.30
2024-03-12T14:28:08.958Z,15.40
2024-03-12T14:33:11.225Z,15.70
2024-03-12T14:38:13.264Z,15.70
2024-03-12T14:43:15.291Z,15.80
2024-03-12T14:48:17.273Z,15.70
2024-03-12T14:53:19.118Z,15.80
2024-03-12T14:58:21.496Z,15.80
2024-03-12T15:03:23.474Z,15.50
2024-03-12T15:08:25.350Z,15.10
2024-03-12T15:13:27.520Z,14.90
2024-03-12T15:18:29.696Z,14.80
2024-03-12T15:23:32.480Z,14.70
2024-03-12T15:28:34.306Z,14.60
2024-03-12T15:33:38.432Z,14.50
2024-03-12T15:38:40.305Z,14.50
2024-03-12T15:43:42.369Z,14.50
2024-03-12T15:48:44.368Z,14.40
2024-03-12T15:53:46.197Z,14.40
2024-03-12T15:58:47.987Z,14.40
2024-03-12T16:03:50.371Z,14.30
2024-03-12T16:08:54.335Z,14.30
2024-03-12T16:13:57.120Z,14.20
2024-03-12T16:19:00.042Z,14.20
2024-03-12T16:24:02.474Z,14.20
2024-03-12T16:29:04.642Z,14.20
2024-03-12T16:34:07.358Z,14.20
2024-03-12T16:39:10.265Z,14.10
2024-03-12T16:44:12.923Z,14.10
2024-03-12T16:49:15.199Z,14.10
2024-03-12T16:54:20.159Z,14.10
2024-03-12T16:59:22.053Z,14.10
2024-03-12T17:04:24.698Z,14.10
2024-03-12T17:09:27.036Z,14.10
2024-03-12T17:14:34.460Z,14.10
2024-03-12T17:19:39.528Z,14.10
2024-03-12T17:24:41.612Z,14.00
2024-03-12T17:29:43.941Z,14.00
2024-03-12T17:34:45.913Z,14.00
2024-03-12T17:39:47.979Z,14.00
2024-03-12T17:44:50.322Z,14.10
2024-03-12T17:49:54.447Z,14.00
2024-03-12T17:54:57.052Z,14.10
2024-03-12T18:00:00.738Z,14.00
2024-03-12T18:05:05.321Z,14.00
2024-03-12T18:10:10.850Z,14.00
2024-03-12T18:15:12.996Z,14.00
2024-03-12T18:20:25.434Z,14.00
2024-03-12T18:25:27.620Z,14.00
2024-03-12T18:30:29.483Z,14.00
2024-03-12T18:35:31.353Z,14.00
2024-03-12T18:40:33.366Z,13.90
2024-03-12T18:45:35.684Z,14.00
2024-03-12T18:50:37.886Z,13.90
2024-03-12T18:55:39.895Z,13.90
2024-03-12T19:00:43.540Z,13.90
2024-03-12T19:05:47.923Z,13.90
2024-03-12T19:10:50.060Z,13.90
2024-03-12T19:15:52.169Z,13.90
2024-03-12T19:20:56.281Z,13.90
2024-03-12T19:25:59.823Z,13.90
2024-03-12T19:31:02.107Z,13.90
2024-03-12T19:36:04.816Z,13.90
2024-03-12T19:41:08.448Z,14.00
2024-03-12T19:46:11.790Z,14.00
2024-03-12T19:51:14.304Z,13.90
2024-03-12T19:56:16.199Z,13.90
2024-03-12T20:01:18.593Z,13.90
2024-03-12T20:06:22.954Z,14.00
2024-03-12T20:11:26.015Z,14.00
2024-03-12T20:16:29.984Z,14.00
2024-03-12T20:21:32.012Z,14.00
2024-03-12T20:26:35.458Z,13.90
2024-03-12T20:31:37.347Z,13.90
2024-03-12T20:36:46.089Z,13.90
2024-03-12T20:41:48.416Z,14.00
2024-03-12T20:46:50.367Z,13.90
2024-03-12T20:51:52.656Z,14.00
2024-03-12T20:56:54.530Z,14.00
2024-03-12T21:01:57.255Z,14.00
2024-03-12T21:06:59.548Z,14.00
2024-03-12T21:12:01.449Z,14.00
2024-03-12T21:17:04.886Z,14.00
2024-03-12T21:22:09.417Z,14.00
2024-03-12T21:27:11.452Z,14.00
2024-03-12T21:32:14.033Z,14.00
2024-03-12T21:37:16.068Z,14.00
2024-03-12T21:42:18.132Z,14.00
2024-03-12T21:47:20.815Z,14.00
2024-03-12T21:52:22.804Z,14.00
2024-03-12T21:57:24.786Z,14.00
2024-03-12T22:02:26.603Z,14.00
2024-03-12T22:07:32.030Z,13.90
2024-03-12T22:12:35.252Z,14.00
2024-03-12T22:17:37.606Z,14.00
2024-03-12T22:22:40.639Z,14.00
2024-03-12T22:27:43.693Z,14.00
2024-03-12T22:32:46.337Z,14.00
2024-03-12T22:37:49.457Z,14.00
2024-03-12T22:42:53.158Z,14.00
2024-03-12T22:47:55.299Z,13.90
2024-03-12T22:52:58.626Z,14.00
2024-03-12T22:58:00.861Z,13.90
2024-03-12T23:03:03.442Z,13.90
2024-03-12T23:08:06.925Z,14.00
2024-03-12T23:13:11.285Z,14.00
2024-03-12T23:18:13.495Z,14.00
2024-03-12T23:23:16.196Z,14.00
2024-03-12T23:28:21.456Z,13.90
2024-03-12T23:33:25.081Z,14.00
2024-03-12T23:38:26.943Z,13.90
2024-03-12T23:43:28.799Z,14.00
2024-03-12T23:48:31.207Z,14.00
2024-03-12T23:53:33.028Z,13.90
2024-03-12T23:58:37.279Z,14.00
